createdAt,value
2018-10-09T00:01:16.642Z,15.37
2018-10-09T00:03:49.281Z,17.50
2018-10-09T00:06:21.805Z,17.43
2018-10-09T00:08:54.821Z,17.07
2018-10-09T00:11:27.428Z,19.73
2018-10-09T00:13:59.985Z,22.47
2018-10-09T00:16:32.988Z,22.30
2018-10-09T00:19:06.544Z,22.23
2018-10-09T00:21:39.103Z,20.90
2018-10-09T00:24:12.956Z,20.10
2018-10-09T00:26:45.446Z,19.83
2018-10-09T00:29:18.094Z,18.60
2018-10-09T00:31:52.282Z,18.70
2018-10-09T00:34:24.920Z,15.23
2018-10-09T00:36:57.446Z,14.40
2018-10-09T00:39:30.710Z,17.00
2018-10-09T00:42:03.257Z,16.40
2018-10-09T00:44:38.461Z,14.97
2018-10-09T00:47:11.886Z,12.53
2018-10-09T00:49:44.648Z,13.40
2018-10-09T00:52:18.024Z,11.97
2018-10-09T00:54:51.226Z,10.40
2018-10-09T00:57:24.244Z,11.27
2018-10-09T00:59:56.866Z,12.03
2018-10-09T01:02:29.977Z,15.67
2018-10-09T01:05:02.545Z,15.50
2018-10-09T01:07:36.082Z,13.40
2018-10-09T01:10:11.202Z,15.10
2018-10-09T01:12:43.999Z,12.47
2018-10-09T01:15:15.904Z,14.53
2018-10-09T01:17:49.774Z,16.43
2018-10-09T01:20:30.312Z,14.93
2018-10-09T01:23:06.037Z,14.63
2018-10-09T01:25:39.137Z,16.17
2018-10-09T01:28:12.191Z,28.77
2018-10-09T01:30:44.882Z,25.30
2018-10-09T01:33:17.528Z,22.17
2018-10-09T01:35:51.410Z,20.57
2018-10-09T01:38:23.970Z,21.50
2018-10-09T01:40:56.909Z,20.50
2018-10-09T01:43:30.080Z,16.85
2018-10-09T01:46:02.678Z,19.60
2018-10-09T01:48:35.210Z,15.40
2018-10-09T01:51:09.419Z,14.20
2018-10-09T01:53:42.006Z,16.73
2018-10-09T01:56:14.691Z,16.87
2018-10-09T01:58:49.589Z,17.27
2018-10-09T02:01:22.166Z,16.10
2018-10-09T02:03:55.009Z,16.13
2018-10-09T02:06:28.211Z,19.42
2018-10-09T02:09:00.733Z,18.58
2018-10-09T02:11:33.326Z,16.80
2018-10-09T02:14:06.239Z,17.13
2018-10-09T02:16:38.961Z,17.13
2018-10-09T02:19:11.496Z,15.87
2018-10-09T02:21:44.670Z,17.50
2018-10-09T02:24:17.266Z,17.03
2018-10-09T02:26:49.761Z,22.40
2018-10-09T02:29:22.826Z,29.87
2018-10-09T02:31:55.384Z,25.07
2018-10-09T02:34:28.739Z,21.47
2018-10-09T02:37:03.255Z,19.73
2018-10-09T02:39:36.639Z,35.35
2018-10-09T02:42:09.845Z,32.75
2018-10-09T02:44:42.748Z,27.98
2018-10-09T02:47:17.163Z,19.97
2018-10-09T02:49:51.124Z,18.03
2018-10-09T02:52:24.496Z,17.70
2018-10-09T02:54:57.759Z,17.07
2018-10-09T02:57:30.837Z,24.87
2018-10-09T03:00:07.165Z,22.87
2018-10-09T03:02:39.813Z,23.17
2018-10-09T03:05:13.076Z,23.43
2018-10-09T03:07:46.207Z,24.77
2018-10-09T03:10:18.849Z,26.33
2018-10-09T03:12:52.409Z,34.72
2018-10-09T03:15:26.235Z,37.83
2018-10-09T03:17:58.703Z,32.17
2018-10-09T03:20:31.467Z,26.90
2018-10-09T03:23:04.748Z,20.37
2018-10-09T03:25:37.441Z,20.57
2018-10-09T03:28:10.106Z,20.83
2018-10-09T03:30:42.932Z,17.27
2018-10-09T03:33:15.404Z,19.20
2018-10-09T03:35:48.065Z,15.57
2018-10-09T03:38:20.610Z,16.63
2018-10-09T03:40:53.441Z,17.37
2018-10-09T03:43:25.959Z,17.23
2018-10-09T03:45:58.404Z,16.70
2018-10-09T03:48:31.586Z,18.47
2018-10-09T03:51:05.022Z,19.83
2018-10-09T03:53:37.740Z,18.33
2018-10-09T03:56:10.694Z,19.20
2018-10-09T03:58:46.523Z,17.80
2018-10-09T04:01:18.956Z,18.17
2018-10-09T04:03:51.935Z,16.17
2018-10-09T04:06:24.545Z,18.47
2018-10-09T04:08:57.071Z,29.98
2018-10-09T04:11:30.842Z,20.17
2018-10-09T04:14:06.047Z,20.73
2018-10-09T04:16:39.432Z,30.05
2018-10-09T04:19:13.485Z,23.63
2018-10-09T04:21:45.824Z,20.20
2018-10-09T04:24:25.248Z,26.50
2018-10-09T04:26:58.662Z,32.17
2018-10-09T04:29:32.289Z,28.53
2018-10-09T04:32:05.130Z,22.63
2018-10-09T04:34:38.122Z,20.50
2018-10-09T04:37:10.712Z,20.17
2018-10-09T04:39:43.523Z,19.03
2018-10-09T04:42:17.715Z,21.57
2018-10-09T04:44:51.331Z,17.10
2018-10-09T04:47:24.919Z,17.17
2018-10-09T04:50:04.383Z,17.40
2018-10-09T04:52:37.283Z,30.65
2018-10-09T04:55:09.809Z,23.40
2018-10-09T04:57:43.102Z,23.13
2018-10-09T05:00:17.213Z,20.63
2018-10-09T05:02:49.644Z,18.97
2018-10-09T05:05:22.558Z,21.10
2018-10-09T05:07:55.412Z,17.27
2018-10-09T05:10:31.661Z,18.83
2018-10-09T05:13:08.775Z,19.67
2018-10-09T05:15:44.695Z,20.63
2018-10-09T05:18:20.951Z,28.55
2018-10-09T05:21:01.422Z,24.20
2018-10-09T05:23:37.459Z,21.37
2018-10-09T05:26:13.265Z,21.37
2018-10-09T05:28:50.166Z,23.10
2018-10-09T05:31:26.447Z,24.10
2018-10-09T05:34:02.645Z,21.53
2018-10-09T05:36:39.670Z,20.30
2018-10-09T05:39:15.796Z,33.78
2018-10-09T05:41:49.541Z,29.00
2018-10-09T05:44:26.368Z,27.43
2018-10-09T05:47:01.634Z,31.10
2018-10-09T05:49:38.449Z,25.85
2018-10-09T05:52:16.459Z,26.97
2018-10-09T05:54:52.575Z,22.30
2018-10-09T05:57:29.300Z,21.20
2018-10-09T06:00:13.426Z,24.97
2018-10-09T06:03:02.207Z,24.27
2018-10-09T06:05:40.071Z,20.30
2018-10-09T06:08:20.445Z,28.80
2018-10-09T06:10:55.018Z,28.58
2018-10-09T06:13:28.220Z,27.93
2018-10-09T06:16:01.596Z,22.93
2018-10-09T06:18:34.162Z,21.77
2018-10-09T06:21:09.212Z,22.43
2018-10-09T06:23:43.937Z,23.07
2018-10-09T06:26:16.508Z,24.10
2018-10-09T06:28:52.400Z,24.90
2018-10-09T06:31:25.843Z,25.33
2018-10-09T06:34:01.563Z,23.83
2018-10-09T06:36:37.193Z,27.55
2018-10-09T06:39:11.988Z,24.97
2018-10-09T06:41:45.979Z,22.63
2018-10-09T06:44:21.291Z,21.07
2018-10-09T06:46:55.087Z,22.03
2018-10-09T06:49:28.753Z,24.03
2018-10-09T06:52:05.181Z,25.60
2018-10-09T06:54:37.793Z,24.83
2018-10-09T06:57:10.256Z,24.93
2018-10-09T06:59:44.479Z,30.07
2018-10-09T07:02:17.901Z,29.47
2018-10-09T07:04:50.383Z,28.50
2018-10-09T07:07:23.443Z,28.83
2018-10-09T07:09:56.206Z,26.03
2018-10-09T07:12:29.645Z,29.07
2018-10-09T07:15:08.292Z,28.85
2018-10-09T07:17:40.907Z,26.77
2018-10-09T07:20:13.685Z,23.73
2018-10-09T07:22:46.656Z,22.77
2018-10-09T07:25:19.164Z,21.33
2018-10-09T07:27:51.930Z,25.23
2018-10-09T07:30:24.798Z,22.50
2018-10-09T07:32:57.781Z,22.80
2018-10-09T07:35:30.430Z,21.33
2018-10-09T07:38:05.453Z,35.57
2018-10-09T07:40:38.320Z,30.97
2018-10-09T07:43:11.009Z,25.77
2018-10-09T07:45:44.435Z,24.30
2018-10-09T07:48:16.920Z,24.37
2018-10-09T07:50:50.448Z,22.47
2018-10-09T07:53:23.504Z,22.57
2018-10-09T07:55:56.765Z,21.70
2018-10-09T07:58:32.823Z,20.88
2018-10-09T08:01:06.469Z,18.43
2018-10-09T08:03:39.605Z,42.67
2018-10-09T08:06:13.773Z,42.43
2018-10-09T08:08:46.416Z,25.20
2018-10-09T08:11:19.371Z,20.57
2018-10-09T08:13:51.944Z,24.83
2018-10-09T08:16:24.643Z,21.93
2018-10-09T08:19:02.012Z,20.63
2018-10-09T08:21:35.881Z,25.83
2018-10-09T08:24:09.450Z,23.17
2018-10-09T08:26:45.998Z,21.63
2018-10-09T08:29:19.981Z,24.73
2018-10-09T08:31:55.005Z,20.27
2018-10-09T08:34:29.189Z,21.37
2018-10-09T08:37:01.728Z,23.13
2018-10-09T08:39:38.311Z,22.70
2018-10-09T08:42:13.876Z,25.00
2018-10-09T08:44:48.267Z,23.00
2018-10-09T08:47:22.481Z,21.37
2018-10-09T08:49:58.290Z,21.60
2018-10-09T08:52:30.900Z,20.33
2018-10-09T08:55:03.569Z,21.87
2018-10-09T08:57:39.961Z,19.70
2018-10-09T09:00:16.895Z,18.97
2018-10-09T09:02:50.414Z,19.67
2018-10-09T09:05:23.470Z,18.40
2018-10-09T09:07:59.635Z,17.63
2018-10-09T09:10:35.081Z,17.37
2018-10-09T09:13:09.335Z,18.83
2018-10-09T09:15:41.782Z,18.52
2018-10-09T09:18:15.792Z,17.20
2018-10-09T09:20:50.266Z,16.33
2018-10-09T09:23:22.711Z,16.33
2018-10-09T09:25:55.770Z,16.60
2018-10-09T09:28:28.226Z,17.30
2018-10-09T09:31:01.548Z,16.90
2018-10-09T09:33:37.789Z,15.70
2018-10-09T09:36:10.436Z,17.27
2018-10-09T09:38:46.323Z,17.27
2018-10-09T09:41:19.729Z,16.37
2018-10-09T09:43:52.526Z,17.50
2018-10-09T09:46:34.013Z,18.45
2018-10-09T09:49:06.608Z,16.50
2018-10-09T09:51:40.827Z,17.57
2018-10-09T09:54:14.527Z,17.50
2018-10-09T09:56:47.167Z,17.17
2018-10-09T09:59:19.731Z,16.80
2018-10-09T10:01:52.784Z,15.83
2018-10-09T10:04:27.915Z,15.30
2018-10-09T10:07:01.808Z,16.53
2018-10-09T10:09:40.865Z,15.53
2018-10-09T10:12:14.577Z,15.87
2018-10-09T10:14:50.201Z,17.33
2018-10-09T10:17:24.118Z,17.03
2018-10-09T10:19:56.911Z,15.80
2018-10-09T10:22:29.974Z,14.87
2018-10-09T10:25:02.492Z,14.23
2018-10-09T10:27:36.284Z,14.93
2018-10-09T10:30:10.359Z,15.40
2018-10-09T10:32:46.687Z,15.40
2018-10-09T10:35:19.460Z,16.30
2018-10-09T10:37:52.572Z,15.13
2018-10-09T10:40:30.820Z,14.23
2018-10-09T10:43:04.765Z,14.87
2018-10-09T10:45:42.455Z,15.33
2018-10-09T10:48:15.388Z,15.75
2018-10-09T10:50:48.946Z,14.77
2018-10-09T10:53:21.570Z,15.73
2018-10-09T10:55:54.212Z,15.68
2018-10-09T10:58:27.100Z,14.93
2018-10-09T11:01:00.101Z,16.70
2018-10-09T11:03:33.826Z,15.88
2018-10-09T11:06:06.680Z,15.63
2018-10-09T11:08:43.861Z,14.23
2018-10-09T11:11:19.691Z,15.00
2018-10-09T11:13:52.276Z,13.77
2018-10-09T11:16:26.077Z,13.40
2018-10-09T11:19:02.462Z,14.13
2018-10-09T11:21:35.059Z,13.83
2018-10-09T11:24:13.368Z,14.60
2018-10-09T11:26:49.164Z,13.80
2018-10-09T11:29:24.192Z,15.23
2018-10-09T11:32:05.063Z,15.53
2018-10-09T11:34:38.946Z,15.43
2018-10-09T11:37:17.152Z,14.93
2018-10-09T11:39:49.743Z,14.70
2018-10-09T11:42:24.077Z,14.57
2018-10-09T11:45:00.187Z,15.63
2018-10-09T11:47:34.767Z,12.93
2018-10-09T11:50:09.767Z,15.43
2018-10-09T11:52:43.512Z,14.50
2018-10-09T11:55:16.997Z,13.97
2018-10-09T11:57:51.264Z,15.68
2018-10-09T12:00:24.061Z,12.90
2018-10-09T12:02:57.747Z,11.63
2018-10-09T12:05:31.446Z,13.60
2018-10-09T12:08:08.235Z,15.18
2018-10-09T12:10:41.625Z,13.43
2018-10-09T12:13:15.995Z,11.27
2018-10-09T12:15:53.357Z,12.47
2018-10-09T12:18:25.897Z,13.00
2018-10-09T12:20:59.428Z,13.13
2018-10-09T12:23:34.886Z,10.87
2018-10-09T12:26:10.072Z,11.93
2018-10-09T12:28:43.934Z,12.17
2018-10-09T12:31:18.867Z,11.80
2018-10-09T12:33:54.973Z,12.50
2018-10-09T12:36:29.894Z,10.85
2018-10-09T12:39:12.664Z,11.33
2018-10-09T12:41:48.309Z,9.50
2018-10-09T12:44:26.285Z,11.65
2018-10-09T12:46:59.548Z,9.77
2018-10-09T12:49:33.707Z,10.13
2018-10-09T12:52:08.544Z,9.70
2018-10-09T12:54:42.933Z,9.60
2018-10-09T12:57:15.749Z,7.67
2018-10-09T12:59:51.739Z,9.50
2018-10-09T13:02:26.947Z,8.70
2018-10-09T13:05:02.317Z,9.93
2018-10-09T13:07:37.877Z,10.40
2018-10-09T13:10:12.581Z,9.90
2018-10-09T13:12:46.410Z,8.50
2018-10-09T13:15:21.929Z,9.97
2018-10-09T13:17:55.248Z,8.60
2018-10-09T13:20:30.180Z,10.17
2018-10-09T13:23:06.440Z,8.57
2018-10-09T13:25:40.481Z,7.67
2018-10-09T13:28:14.594Z,9.93
2018-10-09T13:30:49.219Z,9.40
2018-10-09T13:33:22.620Z,8.93
2018-10-09T13:35:56.974Z,8.90
2018-10-09T13:38:31.707Z,8.67
2018-10-09T13:41:12.141Z,9.33
2018-10-09T13:43:47.999Z,9.00
2018-10-09T13:46:23.146Z,9.20
2018-10-09T13:48:56.599Z,8.97
2018-10-09T13:51:32.299Z,7.80
2018-10-09T13:54:07.373Z,8.03
2018-10-09T13:56:43.402Z,6.87
2018-10-09T13:59:16.525Z,8.20
2018-10-09T14:01:49.425Z,9.50
2018-10-09T14:04:24.035Z,7.87
2018-10-09T14:06:56.716Z,9.93
2018-10-09T14:09:29.635Z,9.83
2018-10-09T14:12:02.720Z,8.40
2018-10-09T14:14:35.949Z,9.10
2018-10-09T14:17:09.148Z,7.20
2018-10-09T14:19:43.719Z,8.50
2018-10-09T14:22:16.337Z,9.10
2018-10-09T14:24:51.886Z,8.67
2018-10-09T14:27:24.976Z,9.10
2018-10-09T14:29:57.491Z,7.83
2018-10-09T14:32:30.035Z,9.03
2018-10-09T14:35:04.409Z,7.60
2018-10-09T14:37:36.968Z,8.98
2018-10-09T14:40:10.473Z,8.93
2018-10-09T14:42:45.802Z,8.87
2018-10-09T14:45:19.166Z,8.20
2018-10-09T14:47:52.166Z,7.80
2018-10-09T14:50:25.033Z,9.23
2018-10-09T14:53:00.078Z,7.03
2018-10-09T14:55:33.550Z,9.33
2018-10-09T14:58:08.368Z,8.77
2018-10-09T15:00:40.913Z,8.43
2018-10-09T15:03:14.376Z,7.60
2018-10-09T15:05:48.217Z,7.70
2018-10-09T15:08:22.478Z,8.60
2018-10-09T15:10:54.931Z,8.27
2018-10-09T15:13:28.873Z,7.83
2018-10-09T15:16:02.507Z,8.17
2018-10-09T15:18:36.068Z,8.20
2018-10-09T15:21:10.498Z,8.73
2018-10-09T15:23:44.189Z,7.77
2018-10-09T15:26:17.604Z,9.45
2018-10-09T15:28:50.388Z,7.50
2018-10-09T15:31:26.282Z,7.10
2018-10-09T15:34:00.679Z,7.43
2018-10-09T15:36:36.000Z,7.90
2018-10-09T15:39:11.628Z,8.47
2018-10-09T15:41:45.508Z,7.13
2018-10-09T15:44:19.804Z,7.60
2018-10-09T15:46:53.666Z,8.60
2018-10-09T15:49:31.588Z,8.10
2018-10-09T15:52:09.621Z,7.87
2018-10-09T15:54:46.971Z,7.80
2018-10-09T15:57:21.915Z,7.00
2018-10-09T15:59:57.541Z,7.40
2018-10-09T16:02:32.885Z,7.50
2018-10-09T16:05:07.912Z,7.90
2018-10-09T16:07:42.737Z,7.33
2018-10-09T16:10:18.788Z,7.47
2018-10-09T16:12:56.799Z,6.97
2018-10-09T16:15:31.305Z,6.17
2018-10-09T16:18:09.329Z,7.20
2018-10-09T16:20:42.482Z,7.93
2018-10-09T16:23:18.018Z,7.10
2018-10-09T16:25:54.865Z,7.07
2018-10-09T16:28:30.560Z,8.03
2018-10-09T16:31:05.660Z,6.90
2018-10-09T16:33:39.907Z,8.23
2018-10-09T16:36:16.049Z,7.10
2018-10-09T16:38:49.459Z,6.37
2018-10-09T16:41:29.732Z,6.70
2018-10-09T16:44:07.488Z,6.40
2018-10-09T16:46:42.960Z,6.53
2018-10-09T16:49:21.627Z,7.10
2018-10-09T16:52:07.089Z,6.43
2018-10-09T16:54:42.103Z,8.15
2018-10-09T16:57:15.617Z,6.60
2018-10-09T16:59:50.551Z,7.43
2018-10-09T17:02:25.578Z,7.03
2018-10-09T17:04:58.015Z,6.97
2018-10-09T17:07:31.045Z,8.40
2018-10-09T17:10:04.988Z,7.83
2018-10-09T17:12:44.860Z,7.95
2018-10-09T17:15:17.381Z,7.90
2018-10-09T17:17:54.492Z,6.33
2018-10-09T17:20:27.239Z,8.57
2018-10-09T17:23:03.283Z,9.23
2018-10-09T17:25:37.941Z,7.83
2018-10-09T17:28:11.596Z,7.57
2018-10-09T17:30:45.056Z,7.60
2018-10-09T17:33:19.833Z,7.87
2018-10-09T17:35:54.490Z,7.33
2018-10-09T17:38:29.340Z,7.77
2018-10-09T17:41:01.964Z,7.20
2018-10-09T17:43:37.532Z,8.17
2018-10-09T17:46:11.565Z,8.60
2018-10-09T17:48:44.937Z,9.03
2018-10-09T17:51:18.981Z,7.50
2018-10-09T17:53:52.347Z,7.70
2018-10-09T17:56:28.683Z,8.63
2018-10-09T17:59:03.568Z,8.47
2018-10-09T18:01:38.773Z,7.80
2018-10-09T18:04:12.237Z,10.03
2018-10-09T18:06:46.812Z,10.00
2018-10-09T18:09:21.305Z,10.27
2018-10-09T18:11:56.929Z,10.43
2018-10-09T18:14:32.690Z,11.13
2018-10-09T18:17:09.824Z,13.07
2018-10-09T18:19:45.071Z,11.67
2018-10-09T18:22:19.490Z,11.33
2018-10-09T18:24:54.698Z,11.83
2018-10-09T18:27:29.508Z,12.23
2018-10-09T18:30:05.193Z,12.00
2018-10-09T18:32:37.840Z,10.30
2018-10-09T18:35:12.417Z,9.80
2018-10-09T18:37:44.981Z,11.60
2018-10-09T18:40:18.002Z,15.00
2018-10-09T18:42:52.533Z,13.80
2018-10-09T18:45:26.615Z,12.83
2018-10-09T18:48:02.034Z,12.27
2018-10-09T18:50:35.104Z,15.20
2018-10-09T18:53:08.064Z,13.93
2018-10-09T18:55:43.297Z,13.63
2018-10-09T18:58:18.027Z,14.25
2018-10-09T19:00:56.388Z,12.03
2018-10-09T19:03:29.303Z,12.03
2018-10-09T19:06:10.121Z,12.77
2018-10-09T19:08:46.444Z,15.67
2018-10-09T19:11:26.406Z,21.45
2018-10-09T19:14:00.332Z,22.40
2018-10-09T19:16:48.452Z,20.27
2018-10-09T19:19:37.781Z,17.00
2018-10-09T19:22:19.379Z,15.90
2018-10-09T19:24:53.254Z,14.53
2018-10-09T19:27:26.780Z,15.47
2018-10-09T19:30:22.693Z,16.37
2018-10-09T19:32:58.934Z,17.33
2018-10-09T19:35:34.069Z,16.37
2018-10-09T19:38:10.185Z,15.13
2018-10-09T19:40:52.806Z,16.03
2018-10-09T19:43:29.564Z,16.30
2018-10-09T19:46:03.842Z,16.67
2018-10-09T19:48:39.386Z,18.60
2018-10-09T19:51:14.073Z,18.70
2018-10-09T19:53:46.760Z,18.90
2018-10-09T19:56:21.979Z,20.57
2018-10-09T19:58:55.797Z,16.40
2018-10-09T20:01:31.331Z,17.13
2018-10-09T20:04:08.180Z,18.00
2018-10-09T20:06:41.988Z,17.83
2018-10-09T20:09:15.457Z,20.93
2018-10-09T20:11:49.974Z,20.20
2018-10-09T20:14:25.388Z,21.37
2018-10-09T20:16:59.258Z,18.87
2018-10-09T20:19:37.459Z,24.10
2018-10-09T20:22:13.070Z,20.00
2018-10-09T20:24:48.114Z,20.73
2018-10-09T20:27:26.442Z,20.60
2018-10-09T20:30:00.146Z,23.17
2018-10-09T20:32:35.019Z,20.57
2018-10-09T20:35:09.079Z,22.13
2018-10-09T20:37:44.292Z,24.33
2018-10-09T20:40:17.708Z,21.03
2018-10-09T20:42:54.178Z,20.13
2018-10-09T20:45:28.738Z,23.03
2018-10-09T20:48:01.947Z,22.67
2018-10-09T20:50:38.383Z,21.90
2018-10-09T20:53:13.618Z,17.90
2018-10-09T20:55:48.832Z,17.53
2018-10-09T20:58:27.431Z,19.53
2018-10-09T21:01:01.693Z,35.17
2018-10-09T21:03:39.086Z,57.53
2018-10-09T21:06:14.137Z,26.73
2018-10-09T21:08:47.917Z,18.33
2018-10-09T21:11:25.278Z,19.57
2018-10-09T21:13:59.305Z,20.70
2018-10-09T21:16:41.839Z,19.07
2018-10-09T21:19:22.267Z,21.10
2018-10-09T21:21:56.687Z,22.03
2018-10-09T21:24:30.831Z,22.23
2018-10-09T21:27:05.812Z,24.60
2018-10-09T21:29:41.363Z,22.90
2018-10-09T21:32:14.647Z,32.28
2018-10-09T21:34:49.436Z,25.60
2018-10-09T21:37:24.050Z,23.23
2018-10-09T21:39:57.569Z,21.73
2018-10-09T21:42:31.314Z,23.03
2018-10-09T21:45:07.860Z,26.73
2018-10-09T21:47:47.038Z,27.97
2018-10-09T21:50:20.898Z,25.87
2018-10-09T21:52:54.069Z,26.37
2018-10-09T21:55:30.108Z,29.80
2018-10-09T21:58:03.158Z,28.03
2018-10-09T22:00:42.800Z,26.90
2018-10-09T22:03:17.452Z,32.67
2018-10-09T22:05:51.646Z,33.63
2018-10-09T22:08:26.447Z,37.92
2018-10-09T22:10:59.585Z,44.87
2018-10-09T22:13:33.737Z,41.90
2018-10-09T22:16:12.837Z,40.10
2018-10-09T22:18:47.008Z,36.70
2018-10-09T22:21:20.754Z,31.33
2018-10-09T22:23:55.157Z,33.47
2018-10-09T22:26:28.250Z,39.83
2018-10-09T22:29:01.123Z,39.90
2018-10-09T22:31:35.187Z,37.07
2018-10-09T22:34:08.715Z,40.27
2018-10-09T22:36:58.320Z,40.53
2018-10-09T22:39:33.291Z,40.87
2018-10-09T22:42:08.095Z,42.93
2018-10-09T22:44:41.564Z,45.10
2018-10-09T22:47:16.791Z,42.10
2018-10-09T22:49:51.420Z,39.93
2018-10-09T22:52:25.822Z,35.63
2018-10-09T22:54:59.661Z,37.28
2018-10-09T22:57:33.041Z,33.60
2018-10-09T23:00:12.764Z,29.87
2018-10-09T23:02:45.800Z,33.37
2018-10-09T23:05:19.532Z,32.30
2018-10-09T23:07:53.998Z,31.83
2018-10-09T23:10:27.258Z,36.10
2018-10-09T23:13:00.870Z,35.50
2018-10-09T23:15:34.668Z,37.33
2018-10-09T23:18:07.978Z,36.47
2018-10-09T23:20:41.172Z,35.37
2018-10-09T23:23:15.533Z,31.03
2018-10-09T23:25:50.041Z,33.37
2018-10-09T23:28:22.767Z,35.50
2018-10-09T23:30:59.998Z,37.67
2018-10-09T23:33:34.312Z,35.60
2018-10-09T23:36:07.338Z,35.77
2018-10-09T23:38:41.435Z,39.63
2018-10-09T23:41:14.298Z,38.63
2018-10-09T23:43:48.477Z,32.57
2018-10-09T23:46:22.933Z,31.73
2018-10-09T23:48:55.956Z,31.43
2018-10-09T23:51:29.176Z,26.37
2018-10-09T23:54:03.491Z,34.77
2018-10-09T23:56:37.329Z,41.60
2018-10-09T23:59:10.984Z,33.67
